createdAt,value
2016-09-18T00:00:18.710Z,17.75
2016-09-18T00:00:59.260Z,17.79
2016-09-18T00:01:39.808Z,17.68
2016-09-18T00:02:20.351Z,17.7
2016-09-18T00:03:00.894Z,17.72
2016-09-18T00:03:41.446Z,17.78
2016-09-18T00:04:21.994Z,17.78
2016-09-18T00:05:02.534Z,17.78
2016-09-18T00:05:43.069Z,17.74
2016-09-18T00:06:23.616Z,17.77
2016-09-18T00:07:04.156Z,17.75
2016-09-18T00:07:44.696Z,17.86
2016-09-18T00:08:25.252Z,17.74
2016-09-18T00:09:05.790Z,17.78
2016-09-18T00:09:46.338Z,17.75
2016-09-18T00:10:26.892Z,17.79
2016-09-18T00:11:07.432Z,17.78
2016-09-18T00:11:47.979Z,17.81
2016-09-18T00:12:28.516Z,17.86
2016-09-18T00:13:09.070Z,17.75
2016-09-18T00:13:49.618Z,17.77
2016-09-18T00:14:30.168Z,17.77
2016-09-18T00:15:10.709Z,17.72
2016-09-18T00:15:51.252Z,17.72
2016-09-18T00:16:31.795Z,17.77
2016-09-18T00:17:12.339Z,17.77
2016-09-18T00:17:52.879Z,17.81
2016-09-18T00:18:33.424Z,17.72
2016-09-18T00:19:13.964Z,17.84
2016-09-18T00:19:54.509Z,17.78
2016-09-18T00:20:35.062Z,17.79
2016-09-18T00:21:15.599Z,17.79
2016-09-18T00:21:56.139Z,17.86
2016-09-18T00:22:36.673Z,17.82
2016-09-18T00:23:17.217Z,17.93
2016-09-18T00:23:57.757Z,17.81
2016-09-18T00:24:38.316Z,17.89
2016-09-18T00:25:18.816Z,17.79
2016-09-18T00:25:59.363Z,17.84
2016-09-18T00:26:39.917Z,17.96
2016-09-18T00:27:20.453Z,17.93
2016-09-18T00:28:00.999Z,17.78
2016-09-18T00:28:41.548Z,17.82
2016-09-18T00:29:22.091Z,17.89
2016-09-18T00:30:02.656Z,17.96
2016-09-18T00:30:43.207Z,17.84
2016-09-18T00:31:23.758Z,17.79
2016-09-18T00:32:04.303Z,17.89
2016-09-18T00:32:44.851Z,17.9
2016-09-18T00:33:25.422Z,17.95
2016-09-18T00:34:05.974Z,17.84
2016-09-18T00:34:46.515Z,17.9
2016-09-18T00:35:27.063Z,17.9
2016-09-18T00:36:07.614Z,17.95
2016-09-18T00:36:48.155Z,17.92
2016-09-18T00:37:28.708Z,17.95
2016-09-18T00:38:09.250Z,17.93
2016-09-18T00:38:49.805Z,17.95
2016-09-18T00:39:30.341Z,17.93
2016-09-18T00:40:10.876Z,17.89
2016-09-18T00:40:51.416Z,17.93
2016-09-18T00:41:31.955Z,17.93
2016-09-18T00:42:12.502Z,17.92
2016-09-18T00:42:53.046Z,17.9
2016-09-18T00:43:33.583Z,17.87
2016-09-18T00:44:14.123Z,17.82
2016-09-18T00:44:54.668Z,17.9
2016-09-18T00:45:35.220Z,17.92
2016-09-18T00:46:15.764Z,17.81
2016-09-18T00:46:56.306Z,17.92
2016-09-18T00:47:36.851Z,17.78
2016-09-18T00:48:17.395Z,17.87
2016-09-18T00:48:57.917Z,17.89
2016-09-18T00:49:38.462Z,17.82
2016-09-18T00:50:19.005Z,17.9
2016-09-18T00:50:59.546Z,17.84
2016-09-18T00:51:40.093Z,17.81
2016-09-18T00:52:20.627Z,17.81
2016-09-18T00:53:01.166Z,17.79
2016-09-18T00:53:41.711Z,17.78
2016-09-18T00:54:22.258Z,17.84
2016-09-18T00:55:02.796Z,17.77
2016-09-18T00:55:43.339Z,17.77
2016-09-18T00:56:23.887Z,17.75
2016-09-18T00:57:04.417Z,17.77
2016-09-18T00:57:44.954Z,17.77
2016-09-18T00:58:25.504Z,17.72
2016-09-18T00:59:06.047Z,17.74
2016-09-18T00:59:46.602Z,17.71
2016-09-18T01:00:27.139Z,17.75
2016-09-18T01:01:07.695Z,17.77
2016-09-18T01:01:48.240Z,17.75
2016-09-18T01:02:28.787Z,17.78
2016-09-18T01:03:09.339Z,17.77
2016-09-18T01:03:49.882Z,17.78
2016-09-18T01:04:30.421Z,17.77
2016-09-18T01:05:10.967Z,17.78
2016-09-18T01:05:51.515Z,17.77
2016-09-18T01:06:32.041Z,17.75
2016-09-18T01:07:12.583Z,17.77
2016-09-18T01:07:53.112Z,17.77
2016-09-18T01:08:33.666Z,17.77
2016-09-18T01:09:14.203Z,17.81
2016-09-18T01:09:54.749Z,17.77
2016-09-18T01:10:35.283Z,17.77
2016-09-18T01:11:15.826Z,17.81
2016-09-18T01:11:56.376Z,17.79
2016-09-18T01:12:36.910Z,17.77
2016-09-18T01:13:17.449Z,17.78
2016-09-18T01:13:57.966Z,17.81
2016-09-18T01:14:38.516Z,17.77
2016-09-18T01:15:19.044Z,17.79
2016-09-18T01:15:59.595Z,17.74
2016-09-18T01:16:40.130Z,17.77
2016-09-18T01:17:20.675Z,17.79
2016-09-18T01:18:01.229Z,17.79
2016-09-18T01:18:41.780Z,17.84
2016-09-18T01:19:22.328Z,17.75
2016-09-18T01:20:02.873Z,17.81
2016-09-18T01:20:43.408Z,17.74
2016-09-18T01:21:23.945Z,17.77
2016-09-18T01:22:04.490Z,17.86
2016-09-18T01:22:45.036Z,17.77
2016-09-18T01:23:25.572Z,17.75
2016-09-18T01:24:06.129Z,17.77
2016-09-18T01:24:46.660Z,17.75
2016-09-18T01:25:27.216Z,17.77
2016-09-18T01:26:07.765Z,17.86
2016-09-18T01:26:48.317Z,17.77
2016-09-18T01:27:28.859Z,17.75
2016-09-18T01:28:09.394Z,17.78
2016-09-18T01:28:49.938Z,17.78
2016-09-18T01:29:30.478Z,17.77
2016-09-18T01:30:11.021Z,17.78
2016-09-18T01:30:51.553Z,17.81
2016-09-18T01:31:32.091Z,17.74
2016-09-18T01:32:12.637Z,17.75
2016-09-18T01:32:53.175Z,17.72
2016-09-18T01:33:33.723Z,17.84
2016-09-18T01:34:14.269Z,17.77
2016-09-18T01:34:54.818Z,17.79
2016-09-18T01:35:35.368Z,17.78
2016-09-18T01:36:15.915Z,17.78
2016-09-18T01:36:56.448Z,17.66
2016-09-18T01:37:36.988Z,17.77
2016-09-18T01:38:17.524Z,17.7
2016-09-18T01:38:58.062Z,17.75
2016-09-18T01:39:38.596Z,17.7
2016-09-18T01:40:19.157Z,17.75
2016-09-18T01:40:59.693Z,17.74
2016-09-18T01:41:40.247Z,17.68
2016-09-18T01:42:20.785Z,17.74
2016-09-18T01:43:01.320Z,17.74
2016-09-18T01:43:41.863Z,17.78
2016-09-18T01:44:22.406Z,17.74
2016-09-18T01:45:02.958Z,17.77
2016-09-18T01:45:43.507Z,17.77
2016-09-18T01:46:24.054Z,17.77
2016-09-18T01:47:04.613Z,17.77
2016-09-18T01:47:45.155Z,17.72
2016-09-18T01:48:25.707Z,17.75
2016-09-18T01:49:06.248Z,17.81
2016-09-18T01:49:46.785Z,17.72
2016-09-18T01:50:27.322Z,17.78
2016-09-18T01:51:07.870Z,17.77
2016-09-18T01:51:48.403Z,17.79
2016-09-18T01:52:28.953Z,17.78
2016-09-18T01:53:09.501Z,17.79
2016-09-18T01:53:50.039Z,17.75
2016-09-18T01:54:30.598Z,17.77
2016-09-18T01:55:11.146Z,17.79
2016-09-18T01:55:51.695Z,17.81
2016-09-18T01:56:32.243Z,17.79
2016-09-18T01:57:12.778Z,17.78
2016-09-18T01:57:53.327Z,17.78
2016-09-18T01:58:33.872Z,17.81
2016-09-18T01:59:14.414Z,17.75
2016-09-18T01:59:54.967Z,17.75
2016-09-18T02:00:35.543Z,17.77
2016-09-18T02:01:16.036Z,17.71
2016-09-18T02:01:56.573Z,17.71
2016-09-18T02:02:37.117Z,17.75
2016-09-18T02:03:17.663Z,17.7
2016-09-18T02:03:58.207Z,17.72
2016-09-18T02:04:38.752Z,17.7
2016-09-18T02:05:19.315Z,17.71
2016-09-18T02:05:59.859Z,17.75
2016-09-18T02:06:40.406Z,17.79
2016-09-18T02:07:20.954Z,17.71
2016-09-18T02:08:01.502Z,17.74
2016-09-18T02:08:42.037Z,17.72
2016-09-18T02:09:22.583Z,17.75
2016-09-18T02:10:03.132Z,17.81
2016-09-18T02:10:43.675Z,17.78
2016-09-18T02:11:24.208Z,17.7
2016-09-18T02:12:04.767Z,17.68
2016-09-18T02:12:45.297Z,17.71
2016-09-18T02:13:25.842Z,17.75
2016-09-18T02:14:06.377Z,17.7
2016-09-18T02:14:46.924Z,17.77
2016-09-18T02:15:27.479Z,17.81
2016-09-18T02:16:08.015Z,17.71
2016-09-18T02:16:48.572Z,17.77
2016-09-18T02:17:29.108Z,17.71
2016-09-18T02:18:09.651Z,17.75
2016-09-18T02:18:50.196Z,17.72
2016-09-18T02:19:30.722Z,17.79
2016-09-18T02:20:11.271Z,17.72
2016-09-18T02:20:51.828Z,17.74
2016-09-18T02:21:32.359Z,17.72
2016-09-18T02:22:12.893Z,17.74
2016-09-18T02:22:53.435Z,17.72
2016-09-18T02:23:33.976Z,17.71
2016-09-18T02:24:14.524Z,17.74
2016-09-18T02:24:55.069Z,17.75
2016-09-18T02:25:35.621Z,17.75
2016-09-18T02:26:16.160Z,17.74
2016-09-18T02:26:56.700Z,17.64
2016-09-18T02:27:37.239Z,17.72
2016-09-18T02:28:17.783Z,17.62
2016-09-18T02:28:58.311Z,17.72
2016-09-18T02:29:38.842Z,17.68
2016-09-18T02:30:19.389Z,17.62
2016-09-18T02:30:59.933Z,17.72
2016-09-18T02:31:40.479Z,17.74
2016-09-18T02:32:21.046Z,17.66
2016-09-18T02:33:01.575Z,17.64
2016-09-18T02:33:42.132Z,17.74
2016-09-18T02:34:22.680Z,17.7
2016-09-18T02:35:03.233Z,17.7
2016-09-18T02:35:43.780Z,17.68
2016-09-18T02:36:24.328Z,17.59
2016-09-18T02:37:04.867Z,17.62
2016-09-18T02:37:45.405Z,17.75
2016-09-18T02:38:25.952Z,17.7
2016-09-18T02:39:06.495Z,17.68
2016-09-18T02:39:47.041Z,17.71
2016-09-18T02:40:27.577Z,17.7
2016-09-18T02:41:08.125Z,17.66
2016-09-18T02:41:48.669Z,17.74
2016-09-18T02:42:29.210Z,17.64
2016-09-18T02:43:09.747Z,17.71
2016-09-18T02:43:50.283Z,17.68
2016-09-18T02:44:30.844Z,17.66
2016-09-18T02:45:11.383Z,17.63
2016-09-18T02:45:51.931Z,17.63
2016-09-18T02:46:32.474Z,17.66
2016-09-18T02:47:13.029Z,17.66
2016-09-18T02:47:53.568Z,17.59
2016-09-18T02:48:34.118Z,17.68
2016-09-18T02:49:14.661Z,17.59
2016-09-18T02:49:55.187Z,17.58
2016-09-18T02:50:35.732Z,17.58
2016-09-18T02:51:16.268Z,17.66
2016-09-18T02:51:56.824Z,17.63
2016-09-18T02:52:37.372Z,17.55
2016-09-18T02:53:17.909Z,17.56
2016-09-18T02:53:58.436Z,17.64
2016-09-18T02:54:38.975Z,17.63
2016-09-18T02:55:19.525Z,17.58
2016-09-18T02:56:00.076Z,17.54
2016-09-18T02:56:40.611Z,17.58
2016-09-18T02:57:21.140Z,17.64
2016-09-18T02:58:01.677Z,17.64
2016-09-18T02:58:42.224Z,17.59
2016-09-18T02:59:22.759Z,17.59
2016-09-18T03:00:03.306Z,17.55
2016-09-18T03:00:43.855Z,17.64
2016-09-18T03:01:24.405Z,17.58
2016-09-18T03:02:04.951Z,17.63
2016-09-18T03:02:45.490Z,17.64
2016-09-18T03:03:26.039Z,17.59
2016-09-18T03:04:06.591Z,17.56
2016-09-18T03:04:47.131Z,17.58
2016-09-18T03:05:27.682Z,17.55
2016-09-18T03:06:08.226Z,17.51
2016-09-18T03:06:48.775Z,17.58
2016-09-18T03:07:29.320Z,17.62
2016-09-18T03:08:09.866Z,17.59
2016-09-18T03:08:50.400Z,17.62
2016-09-18T03:09:30.943Z,17.63
2016-09-18T03:10:11.494Z,17.63
2016-09-18T03:10:52.040Z,17.62
2016-09-18T03:11:32.586Z,17.66
2016-09-18T03:12:13.116Z,17.63
2016-09-18T03:12:53.672Z,17.62
2016-09-18T03:13:34.215Z,17.64
2016-09-18T03:14:14.756Z,17.55
2016-09-18T03:14:55.292Z,17.59
2016-09-18T03:15:35.834Z,17.64
2016-09-18T03:16:16.379Z,17.64
2016-09-18T03:16:56.922Z,17.63
2016-09-18T03:17:37.461Z,17.55
2016-09-18T03:18:18.005Z,17.58
2016-09-18T03:18:58.548Z,17.55
2016-09-18T03:19:39.085Z,17.58
2016-09-18T03:20:19.634Z,17.7
2016-09-18T03:21:00.180Z,17.56
2016-09-18T03:21:40.730Z,17.59
2016-09-18T03:22:21.277Z,17.58
2016-09-18T03:23:01.831Z,17.62
2016-09-18T03:23:42.379Z,17.62
2016-09-18T03:24:22.930Z,17.58
2016-09-18T03:25:03.484Z,17.62
2016-09-18T03:25:44.032Z,17.58
2016-09-18T03:26:24.568Z,17.58
2016-09-18T03:27:05.113Z,17.62
2016-09-18T03:27:45.660Z,17.63
2016-09-18T03:28:26.198Z,17.62
2016-09-18T03:29:06.742Z,17.58
2016-09-18T03:29:47.277Z,17.59
2016-09-18T03:30:27.823Z,17.63
2016-09-18T03:31:08.366Z,17.58
2016-09-18T03:31:48.904Z,17.55
2016-09-18T03:32:29.440Z,17.62
2016-09-18T03:33:09.993Z,17.58
2016-09-18T03:33:50.544Z,17.58
2016-09-18T03:34:31.098Z,17.59
2016-09-18T03:35:11.648Z,17.58
2016-09-18T03:35:52.198Z,17.63
2016-09-18T03:36:32.758Z,17.56
2016-09-18T03:37:13.294Z,17.64
2016-09-18T03:37:53.844Z,17.62
2016-09-18T03:38:34.449Z,17.59
2016-09-18T03:39:14.985Z,17.59
2016-09-18T03:39:55.518Z,17.62
2016-09-18T03:40:36.058Z,17.54
2016-09-18T03:41:16.604Z,17.51
2016-09-18T03:41:57.153Z,17.58
2016-09-18T03:42:37.699Z,17.54
2016-09-18T03:43:18.245Z,17.54
2016-09-18T03:43:58.787Z,17.52
2016-09-18T03:44:39.338Z,17.56
2016-09-18T03:45:19.884Z,17.56
2016-09-18T03:46:00.435Z,17.55
2016-09-18T03:46:40.986Z,17.56
2016-09-18T03:47:21.521Z,17.54
2016-09-18T03:48:02.070Z,17.52
2016-09-18T03:48:42.613Z,17.58
2016-09-18T03:49:23.152Z,17.55
2016-09-18T03:50:03.697Z,17.55
2016-09-18T03:50:44.237Z,17.59
2016-09-18T03:51:24.796Z,17.52
2016-09-18T03:52:05.306Z,17.52
2016-09-18T03:52:45.836Z,17.56
2016-09-18T03:53:26.389Z,17.51
2016-09-18T03:54:06.936Z,17.52
2016-09-18T03:54:47.480Z,17.56
2016-09-18T03:55:28.027Z,17.49
2016-09-18T03:56:08.562Z,17.59
2016-09-18T03:56:49.101Z,17.62
2016-09-18T03:57:29.644Z,17.56
2016-09-18T03:58:10.172Z,17.54
2016-09-18T03:58:50.719Z,17.55
2016-09-18T03:59:31.266Z,17.63
2016-09-18T04:00:11.799Z,17.58
2016-09-18T04:00:52.352Z,17.58
2016-09-18T04:01:32.898Z,17.64
2016-09-18T04:02:13.448Z,17.62
2016-09-18T04:02:53.983Z,17.56
2016-09-18T04:03:34.527Z,17.59
2016-09-18T04:04:15.062Z,17.54
2016-09-18T04:04:55.604Z,17.58
2016-09-18T04:05:36.148Z,17.56
2016-09-18T04:06:16.695Z,17.59
2016-09-18T04:06:57.257Z,17.56
2016-09-18T04:07:37.785Z,17.56
2016-09-18T04:08:18.316Z,17.58
2016-09-18T04:08:58.857Z,17.59
2016-09-18T04:09:39.407Z,17.55
2016-09-18T04:10:19.959Z,17.54
2016-09-18T04:11:00.506Z,17.58
2016-09-18T04:11:41.052Z,17.63
2016-09-18T04:12:21.594Z,17.62
2016-09-18T04:13:02.120Z,17.58
2016-09-18T04:13:42.663Z,17.56
2016-09-18T04:14:23.210Z,17.52
2016-09-18T04:15:03.749Z,17.56
2016-09-18T04:15:44.305Z,17.55
2016-09-18T04:16:24.827Z,17.55
2016-09-18T04:17:05.380Z,17.52
2016-09-18T04:17:45.965Z,17.54
2016-09-18T04:18:26.506Z,17.58
2016-09-18T04:19:07.068Z,17.48
2016-09-18T04:19:47.604Z,17.52
2016-09-18T04:20:28.150Z,17.55
2016-09-18T04:21:08.696Z,17.51
2016-09-18T04:21:49.247Z,17.52
2016-09-18T04:22:29.787Z,17.55
2016-09-18T04:23:10.315Z,17.49
2016-09-18T04:23:50.858Z,17.46
2016-09-18T04:24:31.418Z,17.46
2016-09-18T04:25:11.934Z,17.43
2016-09-18T04:25:52.514Z,17.43
2016-09-18T04:26:33.046Z,17.41
2016-09-18T04:27:13.580Z,17.46
2016-09-18T04:27:54.122Z,17.38
2016-09-18T04:28:34.671Z,17.43
2016-09-18T04:29:15.232Z,17.44
2016-09-18T04:29:55.802Z,17.49
2016-09-18T04:30:36.331Z,17.43
2016-09-18T04:31:16.878Z,17.38
2016-09-18T04:31:57.404Z,17.38
2016-09-18T04:32:37.959Z,17.38
2016-09-18T04:33:18.495Z,17.41
2016-09-18T04:33:59.039Z,17.4
2016-09-18T04:34:39.579Z,17.4
2016-09-18T04:35:20.120Z,17.43
2016-09-18T04:36:00.663Z,17.41
2016-09-18T04:36:41.198Z,17.41
2016-09-18T04:37:21.744Z,17.4
2016-09-18T04:38:02.290Z,17.38
2016-09-18T04:38:42.831Z,17.34
2016-09-18T04:39:23.378Z,17.4
2016-09-18T04:40:03.917Z,17.4
2016-09-18T04:40:44.464Z,17.38
2016-09-18T04:41:25.011Z,17.41
2016-09-18T04:42:05.551Z,17.38
2016-09-18T04:42:46.101Z,17.4
2016-09-18T04:43:26.642Z,17.31
2016-09-18T04:44:07.193Z,17.41
2016-09-18T04:44:47.770Z,17.36
2016-09-18T04:45:28.304Z,17.4
2016-09-18T04:46:08.846Z,17.37
2016-09-18T04:46:49.385Z,17.3
2016-09-18T04:47:29.919Z,17.3
2016-09-18T04:48:10.456Z,17.23
2016-09-18T04:48:50.999Z,17.31
2016-09-18T04:49:31.536Z,17.28
2016-09-18T04:50:12.091Z,17.28
2016-09-18T04:50:52.641Z,17.28
2016-09-18T04:51:33.182Z,17.31
2016-09-18T04:52:13.716Z,17.3
2016-09-18T04:52:54.261Z,17.28
2016-09-18T04:53:34.803Z,17.33
2016-09-18T04:54:15.348Z,17.31
2016-09-18T04:54:55.890Z,17.23
2016-09-18T04:55:36.419Z,17.25
2016-09-18T04:56:16.963Z,17.22
2016-09-18T04:56:57.509Z,17.25
2016-09-18T04:57:38.053Z,17.22
2016-09-18T04:58:18.596Z,17.16
2016-09-18T04:58:59.168Z,17.21
2016-09-18T04:59:39.716Z,17.23
2016-09-18T05:00:20.246Z,17.22
2016-09-18T05:01:00.780Z,17.34
2016-09-18T05:01:41.321Z,17.26
2016-09-18T05:02:21.864Z,17.31
2016-09-18T05:03:02.412Z,17.26
2016-09-18T05:03:42.934Z,17.28
2016-09-18T05:04:23.488Z,17.26
2016-09-18T05:05:04.032Z,17.22
2016-09-18T05:05:44.587Z,17.25
2016-09-18T05:06:25.126Z,17.3
2016-09-18T05:07:05.690Z,17.23
2016-09-18T05:07:46.234Z,17.33
2016-09-18T05:08:26.801Z,17.25
2016-09-18T05:09:07.337Z,17.21
2016-09-18T05:09:47.871Z,17.21
2016-09-18T05:10:28.428Z,17.15
2016-09-18T05:11:08.970Z,17.18
2016-09-18T05:11:49.497Z,17.14
2016-09-18T05:12:30.051Z,17.12
2016-09-18T05:13:10.599Z,17.07
2016-09-18T05:13:51.155Z,17.18
2016-09-18T05:14:31.690Z,17.06
2016-09-18T05:15:12.213Z,17.07
2016-09-18T05:17:06.269Z,17.11
2016-09-18T05:17:46.801Z,17.06
2016-09-18T05:18:27.387Z,17.07
2016-09-18T05:19:07.846Z,17.03
2016-09-18T05:19:48.395Z,17.11
2016-09-18T05:20:28.980Z,17.04
2016-09-18T05:21:09.472Z,17.06
2016-09-18T05:21:50.020Z,17.03
2016-09-18T05:22:30.562Z,17.04
2016-09-18T05:23:11.095Z,17.03
2016-09-18T05:23:51.645Z,17.03
2016-09-18T05:24:32.178Z,17.07
2016-09-18T05:25:12.720Z,17.06
2016-09-18T05:25:53.548Z,17.03
2016-09-18T05:26:34.087Z,17.07
2016-09-18T05:27:14.610Z,17.07
2016-09-18T05:27:55.154Z,17.07
2016-09-18T05:28:35.694Z,17.08
2016-09-18T05:29:16.212Z,17.01
2016-09-18T05:29:56.741Z,17.11
2016-09-18T05:30:37.286Z,17.06
2016-09-18T05:31:17.825Z,17.07
2016-09-18T05:31:58.365Z,17.08
2016-09-18T05:32:38.896Z,17.16
2016-09-18T05:33:19.439Z,17.15
2016-09-18T05:33:59.988Z,17.18
2016-09-18T05:34:40.653Z,17.11
2016-09-18T05:35:21.212Z,17.07
2016-09-18T05:36:01.762Z,17.16
2016-09-18T05:36:42.304Z,17.12
2016-09-18T05:37:22.851Z,17.04
2016-09-18T05:38:03.397Z,17.03
2016-09-18T05:38:43.931Z,17.06
2016-09-18T05:39:24.480Z,17.15
2016-09-18T05:40:05.034Z,17.03
2016-09-18T05:40:45.580Z,17.03
2016-09-18T05:41:26.110Z,17.11
2016-09-18T05:42:06.652Z,17.04
2016-09-18T05:42:47.190Z,17.11
2016-09-18T05:43:27.728Z,17.04
2016-09-18T05:44:08.560Z,17.15
2016-09-18T05:44:49.110Z,17.06
2016-09-18T05:45:29.660Z,17.06
2016-09-18T05:46:10.208Z,17.12
2016-09-18T05:46:50.751Z,17.11
2016-09-18T05:47:31.297Z,17.12
2016-09-18T05:48:11.843Z,17.06
2016-09-18T05:48:52.396Z,17.16
2016-09-18T05:49:32.939Z,17.12
2016-09-18T05:50:13.481Z,17.03
2016-09-18T05:50:54.012Z,17.06
2016-09-18T05:51:34.559Z,17.06
2016-09-18T05:52:15.089Z,17.03
2016-09-18T05:52:55.637Z,17.08
2016-09-18T05:53:36.204Z,17.04
2016-09-18T05:54:16.728Z,17.04
2016-09-18T05:54:57.282Z,17.06
2016-09-18T05:55:37.948Z,17.07
2016-09-18T05:56:18.653Z,17.04
2016-09-18T05:56:59.193Z,17.06
2016-09-18T05:57:39.741Z,17.04
2016-09-18T05:58:20.284Z,17.04
2016-09-18T05:59:00.821Z,17.07
2016-09-18T05:59:41.354Z,17.08
2016-09-18T06:00:21.889Z,17.06
2016-09-18T06:01:02.425Z,17.11
2016-09-18T06:01:42.973Z,17.06
2016-09-18T06:02:23.505Z,17.07
2016-09-18T06:03:04.058Z,17.08
2016-09-18T06:03:44.602Z,17.03
2016-09-18T06:04:25.147Z,17.08
2016-09-18T06:05:05.680Z,17.07
2016-09-18T06:05:46.227Z,17.03
2016-09-18T06:06:26.761Z,17.11
2016-09-18T06:07:07.306Z,17.01
2016-09-18T06:07:47.860Z,17.07
2016-09-18T06:08:28.395Z,17.07
2016-09-18T06:09:08.937Z,17.01
2016-09-18T06:09:49.491Z,17.12
2016-09-18T06:10:30.033Z,17.01
2016-09-18T06:11:10.577Z,17.01
2016-09-18T06:11:51.118Z,17.03
2016-09-18T06:12:31.641Z,17.06
2016-09-18T06:13:12.183Z,17.11
2016-09-18T06:13:52.723Z,17.07
2016-09-18T06:14:33.271Z,17.07
2016-09-18T06:15:13.808Z,17.04
2016-09-18T06:15:54.350Z,17.06
2016-09-18T06:16:34.899Z,17.06
2016-09-18T06:17:15.448Z,17.15
2016-09-18T06:17:55.999Z,17.01
2016-09-18T06:18:36.537Z,17.07
2016-09-18T06:19:17.081Z,17.06
2016-09-18T06:19:57.639Z,17.03
2016-09-18T06:20:38.176Z,17.06
2016-09-18T06:21:18.716Z,17.03
2016-09-18T06:21:59.251Z,17.11
2016-09-18T06:22:39.796Z,17.03
2016-09-18T06:23:20.344Z,17.06
2016-09-18T06:24:00.889Z,17.04
2016-09-18T06:24:41.435Z,17.04
2016-09-18T06:25:21.981Z,17.03
2016-09-18T06:26:02.530Z,17.03
2016-09-18T06:26:43.076Z,17.03
2016-09-18T06:27:23.619Z,17.06
2016-09-18T06:28:04.164Z,17.03
2016-09-18T06:28:44.705Z,17.04
2016-09-18T06:29:25.240Z,17
2016-09-18T06:30:05.778Z,17.04
2016-09-18T06:30:46.321Z,17.07
2016-09-18T06:31:26.843Z,17.11
2016-09-18T06:32:07.388Z,17.07
2016-09-18T06:32:47.931Z,17.16
2016-09-18T06:33:28.470Z,17.18
2016-09-18T06:34:09.033Z,17.15
2016-09-18T06:34:49.575Z,17.16
2016-09-18T06:35:30.129Z,17.16
2016-09-18T06:36:10.671Z,17.18
2016-09-18T06:36:51.220Z,17.18
2016-09-18T06:37:31.777Z,17.15
2016-09-18T06:38:12.305Z,17.19
2016-09-18T06:38:52.851Z,17.15
2016-09-18T06:39:33.386Z,17.12
2016-09-18T06:40:13.923Z,17.11
2016-09-18T06:40:54.463Z,17.15
2016-09-18T06:41:34.999Z,17.07
2016-09-18T06:42:15.555Z,17.04
2016-09-18T06:42:56.096Z,17.15
2016-09-18T06:43:36.641Z,17.21
2016-09-18T06:44:17.548Z,17.18
2016-09-18T06:44:58.236Z,17.19
2016-09-18T06:45:38.775Z,17.19
2016-09-18T06:46:19.322Z,17.19
2016-09-18T06:46:59.871Z,17.15
2016-09-18T06:47:40.413Z,17.16
2016-09-18T06:48:20.955Z,17.23
2016-09-18T06:49:01.876Z,17.19
2016-09-18T06:49:42.429Z,17.18
2016-09-18T06:50:22.974Z,17.23
2016-09-18T06:51:03.515Z,17.28
2016-09-18T06:51:44.060Z,17.28
2016-09-18T06:52:24.603Z,17.3
2016-09-18T06:53:05.141Z,17.3
2016-09-18T06:53:45.703Z,17.19
2016-09-18T06:54:26.236Z,17.18
2016-09-18T06:55:06.785Z,17.19
2016-09-18T06:55:47.324Z,17.21
2016-09-18T06:56:27.869Z,17.26
2016-09-18T06:57:08.407Z,17.25
2016-09-18T06:57:48.972Z,17.25
2016-09-18T06:58:29.506Z,17.23
2016-09-18T06:59:10.046Z,17.31
2016-09-18T06:59:50.582Z,17.33
2016-09-18T07:00:31.117Z,17.31
2016-09-18T07:01:11.671Z,17.28
2016-09-18T07:01:52.219Z,17.33
2016-09-18T07:02:32.765Z,17.34
2016-09-18T07:03:13.308Z,17.41
2016-09-18T07:03:53.854Z,17.43
2016-09-18T07:04:34.398Z,17.44
2016-09-18T07:05:14.948Z,17.46
2016-09-18T07:05:55.612Z,17.49
2016-09-18T07:06:36.312Z,17.52
2016-09-18T07:07:16.973Z,17.48
2016-09-18T07:07:57.531Z,17.51
2016-09-18T07:08:38.086Z,17.51
2016-09-18T07:09:18.641Z,17.51
2016-09-18T07:09:59.431Z,17.51
2016-09-18T07:10:39.973Z,17.54
2016-09-18T07:11:20.520Z,17.54
2016-09-18T07:12:01.059Z,17.48
2016-09-18T07:12:41.609Z,17.48
2016-09-18T07:13:22.141Z,17.49
2016-09-18T07:14:02.684Z,17.52
2016-09-18T07:14:43.215Z,17.56
2016-09-18T07:15:23.777Z,17.51
2016-09-18T07:16:04.324Z,17.51
2016-09-18T07:16:44.864Z,17.48
2016-09-18T07:17:25.407Z,17.52
2016-09-18T07:18:06.078Z,17.46
2016-09-18T07:18:46.767Z,17.49
2016-09-18T07:19:27.312Z,17.54
2016-09-18T07:20:07.846Z,17.51
2016-09-18T07:20:48.397Z,17.51
2016-09-18T07:21:28.963Z,17.55
2016-09-18T07:22:09.461Z,17.49
2016-09-18T07:22:50.019Z,17.54
2016-09-18T07:23:30.545Z,17.48
2016-09-18T07:24:11.064Z,17.49
2016-09-18T07:24:51.615Z,17.52
2016-09-18T07:25:32.137Z,17.62
2016-09-18T07:26:12.668Z,17.66
2016-09-18T07:26:53.226Z,17.68
2016-09-18T07:27:33.753Z,17.7
2016-09-18T07:28:14.295Z,17.77
2016-09-18T07:28:54.835Z,17.82
2016-09-18T07:29:35.365Z,17.77
2016-09-18T07:30:15.905Z,17.81
2016-09-18T07:30:56.436Z,17.89
2016-09-18T07:31:36.973Z,17.99
2016-09-18T07:32:17.506Z,17.93
2016-09-18T07:32:58.146Z,17.89
2016-09-18T07:33:38.681Z,17.92
2016-09-18T07:34:19.210Z,17.9
2016-09-18T07:34:59.740Z,17.93
2016-09-18T07:35:40.487Z,17.89
2016-09-18T07:36:21.048Z,17.96
2016-09-18T07:37:01.582Z,17.93
2016-09-18T07:37:42.129Z,18
2016-09-18T07:38:22.679Z,17.95
2016-09-18T07:39:03.206Z,17.97
2016-09-18T07:39:43.744Z,18.02
2016-09-18T07:40:24.305Z,18.03
2016-09-18T07:41:04.803Z,17.96
2016-09-18T07:41:45.340Z,18.1
2016-09-18T07:42:25.891Z,18.12
2016-09-18T07:43:06.399Z,18.17
2016-09-18T07:43:46.913Z,18.17
2016-09-18T07:44:27.456Z,18.23
2016-09-18T07:45:08.033Z,18.37
2016-09-18T07:45:48.576Z,18.39
2016-09-18T07:46:29.095Z,18.32
2016-09-18T07:47:09.640Z,18.33
2016-09-18T07:47:50.205Z,18.45
2016-09-18T07:48:30.714Z,18.5
2016-09-18T07:49:11.237Z,18.47
2016-09-18T07:49:51.771Z,18.5
2016-09-18T07:50:32.325Z,18.51
2016-09-18T07:51:12.947Z,18.48
2016-09-18T07:51:53.512Z,18.52
2016-09-18T07:52:34.110Z,18.55
2016-09-18T07:53:14.736Z,18.51
2016-09-18T07:53:55.274Z,18.5
2016-09-18T07:54:35.798Z,18.52
2016-09-18T07:55:16.330Z,18.5
2016-09-18T07:55:56.881Z,18.45
2016-09-18T07:56:37.475Z,18.48
2016-09-18T07:57:18.047Z,18.45
2016-09-18T07:57:58.601Z,18.37
2016-09-18T07:58:39.150Z,18.36
2016-09-18T07:59:19.676Z,18.33
2016-09-18T08:00:00.239Z,18.36
2016-09-18T08:00:40.741Z,18.39
2016-09-18T08:01:21.284Z,18.35
2016-09-18T08:02:01.828Z,18.32
2016-09-18T08:02:42.370Z,18.35
2016-09-18T08:03:22.901Z,18.32
2016-09-18T08:04:03.433Z,18.37
2016-09-18T08:04:43.970Z,18.35
2016-09-18T08:05:24.750Z,18.39
2016-09-18T08:06:05.289Z,18.32
2016-09-18T08:06:45.811Z,18.41
2016-09-18T08:07:26.346Z,18.41
2016-09-18T08:08:06.904Z,18.33
2016-09-18T08:08:47.444Z,18.37
2016-09-18T08:09:27.975Z,18.35
2016-09-18T08:10:08.509Z,18.29
2016-09-18T08:10:49.056Z,18.35
2016-09-18T08:11:29.599Z,18.44
2016-09-18T08:12:10.140Z,18.47
2016-09-18T08:12:50.688Z,18.5
2016-09-18T08:13:31.240Z,18.62
2016-09-18T08:14:11.783Z,18.6
2016-09-18T08:14:52.340Z,18.65
2016-09-18T08:15:33.097Z,18.73
2016-09-18T08:16:13.648Z,18.75
2016-09-18T08:16:54.197Z,18.73
2016-09-18T08:17:34.749Z,18.72
2016-09-18T08:18:15.308Z,18.73
2016-09-18T08:18:55.853Z,18.8
2016-09-18T08:19:36.402Z,18.8
2016-09-18T08:20:16.953Z,18.81
2016-09-18T08:20:57.502Z,18.76
2016-09-18T08:21:38.031Z,18.75
2016-09-18T08:22:18.575Z,18.78
2016-09-18T08:22:59.133Z,18.76
2016-09-18T08:23:39.687Z,18.78
2016-09-18T08:24:20.237Z,18.8
2016-09-18T08:25:00.787Z,18.87
2016-09-18T08:25:41.338Z,18.84
2016-09-18T08:26:21.887Z,18.88
2016-09-18T08:27:02.442Z,18.91
2016-09-18T08:27:42.992Z,18.92
2016-09-18T08:28:23.543Z,18.91
2016-09-18T08:29:04.094Z,18.94
2016-09-18T08:29:44.630Z,18.92
2016-09-18T08:30:25.179Z,18.98
2016-09-18T08:31:05.732Z,18.94
2016-09-18T08:31:46.272Z,19.04
2016-09-18T08:32:26.823Z,19.08
2016-09-18T08:33:07.371Z,19.07
2016-09-18T08:33:47.923Z,19.06
2016-09-18T08:34:28.469Z,19.16
2016-09-18T08:35:09.017Z,19.16
2016-09-18T08:35:49.554Z,19.23
2016-09-18T08:36:30.120Z,19.14
2016-09-18T08:37:10.652Z,19.21
2016-09-18T08:37:51.198Z,19.28
2016-09-18T08:38:31.753Z,19.31
2016-09-18T08:39:12.295Z,19.29
2016-09-18T08:39:52.845Z,19.31
2016-09-18T08:40:33.419Z,19.28
2016-09-18T08:41:13.962Z,19.29
2016-09-18T08:41:54.504Z,19.32
2016-09-18T08:42:35.054Z,19.28
2016-09-18T08:43:15.607Z,19.33
2016-09-18T08:43:56.132Z,19.28
2016-09-18T08:44:36.680Z,19.23